createdAt,value
2022-11-29T00:01:29.192Z,60.63
2022-11-29T00:03:57.977Z,60.56
2022-11-29T00:06:27.138Z,60.35
2022-11-29T00:08:55.106Z,60.62
2022-11-29T00:11:37.590Z,60.50
2022-11-29T00:14:05.508Z,60.61
2022-11-29T00:16:32.973Z,60.76
2022-11-29T00:19:01.809Z,60.70
2022-11-29T00:21:29.356Z,60.59
2022-11-29T00:23:56.822Z,60.58
2022-11-29T00:26:24.253Z,60.72
2022-11-29T00:28:51.669Z,60.63
2022-11-29T00:31:20.255Z,60.82
2022-11-29T00:33:47.693Z,60.67
2022-11-29T00:36:16.696Z,60.83
2022-11-29T00:38:44.181Z,60.70
2022-11-29T00:41:12.060Z,60.89
2022-11-29T00:43:39.583Z,60.85
2022-11-29T00:46:07.948Z,60.93
2022-11-29T00:48:35.525Z,60.95
2022-11-29T00:51:03.186Z,60.89
2022-11-29T00:53:31.950Z,60.83
2022-11-29T00:55:59.386Z,60.91
2022-11-29T00:58:27.306Z,60.82
2022-11-29T01:00:55.058Z,60.91
2022-11-29T01:03:22.620Z,60.82
2022-11-29T01:05:50.084Z,60.92
2022-11-29T01:08:17.687Z,60.83
2022-11-29T01:10:46.428Z,60.86
2022-11-29T01:13:13.840Z,60.90
2022-11-29T01:15:41.498Z,60.94
2022-11-29T01:18:08.929Z,60.95
2022-11-29T01:20:36.356Z,60.85
2022-11-29T01:23:03.804Z,60.87
2022-11-29T01:25:31.998Z,61.00
2022-11-29T01:28:00.786Z,60.91
2022-11-29T01:30:28.265Z,61.05
2022-11-29T01:32:55.770Z,61.03
2022-11-29T01:35:23.273Z,61.06
2022-11-29T01:37:50.725Z,61.15
2022-11-29T01:40:18.380Z,61.10
2022-11-29T01:42:45.810Z,61.21
2022-11-29T01:45:22.761Z,61.21
2022-11-29T01:47:50.244Z,61.33
2022-11-29T01:50:17.772Z,60.98
2022-11-29T01:52:45.199Z,61.18
2022-11-29T01:55:12.617Z,61.16
2022-11-29T01:57:41.330Z,61.25
2022-11-29T02:00:10.917Z,61.36
2022-11-29T02:02:42.051Z,61.12
2022-11-29T02:05:10.108Z,61.22
2022-11-29T02:07:37.619Z,61.18
2022-11-29T02:10:05.809Z,61.21
2022-11-29T02:12:39.101Z,61.26
2022-11-29T02:15:17.385Z,61.48
2022-11-29T02:17:53.397Z,61.22
2022-11-29T02:20:56.319Z,61.15
2022-11-29T02:23:46.612Z,61.32
2022-11-29T02:26:19.393Z,61.34
2022-11-29T02:28:55.967Z,61.29
2022-11-29T02:31:49.842Z,61.27
2022-11-29T02:34:47.894Z,61.46
2022-11-29T02:37:29.530Z,61.54
2022-11-29T02:40:01.949Z,61.47
2022-11-29T02:42:59.652Z,61.51
2022-11-29T02:45:36.778Z,61.45
2022-11-29T02:48:12.958Z,61.58
2022-11-29T02:50:43.031Z,61.51
2022-11-29T02:53:13.789Z,61.28
2022-11-29T02:55:44.277Z,61.68
2022-11-29T02:58:17.761Z,61.65
2022-11-29T03:00:49.544Z,61.62
2022-11-29T03:03:21.349Z,61.81
2022-11-29T03:05:51.850Z,61.77
2022-11-29T03:08:23.587Z,61.62
2022-11-29T03:10:56.595Z,61.51
2022-11-29T03:13:29.020Z,61.74
2022-11-29T03:15:59.442Z,61.69
2022-11-29T03:18:34.020Z,61.76
2022-11-29T03:21:09.567Z,61.75
2022-11-29T03:23:38.565Z,61.75
2022-11-29T03:26:07.392Z,61.80
2022-11-29T03:28:36.919Z,61.72
2022-11-29T03:31:07.704Z,61.82
2022-11-29T03:33:40.097Z,61.99
2022-11-29T03:36:11.361Z,61.75
2022-11-29T03:38:40.778Z,61.91
2022-11-29T03:41:15.091Z,61.84
2022-11-29T03:43:44.111Z,62.08
2022-11-29T03:46:12.953Z,62.01
2022-11-29T03:48:41.803Z,61.90
2022-11-29T03:51:12.932Z,62.02
2022-11-29T03:53:43.058Z,62.20
2022-11-29T03:56:23.346Z,62.12
2022-11-29T03:58:53.093Z,62.16
2022-11-29T04:01:44.415Z,62.15
2022-11-29T04:04:49.612Z,62.06
2022-11-29T04:07:29.297Z,62.22
2022-11-29T04:10:15.279Z,62.01
2022-11-29T04:13:02.701Z,62.04
2022-11-29T04:16:03.726Z,62.04
2022-11-29T04:18:56.008Z,62.03
2022-11-29T04:21:56.864Z,62.20
2022-11-29T04:24:54.582Z,62.11
2022-11-29T04:27:31.335Z,62.24
2022-11-29T04:30:07.170Z,62.24
2022-11-29T04:33:02.927Z,62.15
2022-11-29T04:36:05.820Z,62.19
2022-11-29T04:39:05.660Z,62.10
2022-11-29T04:41:54.773Z,62.11
2022-11-29T04:44:40.129Z,62.09
2022-11-29T04:47:29.683Z,62.35
2022-11-29T04:50:09.713Z,61.84
2022-11-29T04:55:00.195Z,62.14
2022-11-29T04:57:33.540Z,62.14
2022-11-29T05:00:07.134Z,62.09
2022-11-29T05:02:36.151Z,62.07
2022-11-29T05:05:07.710Z,62.07
2022-11-29T05:07:37.275Z,62.20
2022-11-29T05:10:13.341Z,62.31
2022-11-29T05:12:46.140Z,62.20
2022-11-29T05:15:38.836Z,61.90
2022-11-29T05:18:08.503Z,61.64
2022-11-29T05:20:39.922Z,61.76
2022-11-29T05:23:18.902Z,61.76
2022-11-29T05:25:47.893Z,61.80
2022-11-29T05:28:21.159Z,61.75
2022-11-29T05:31:02.332Z,61.93
2022-11-29T05:33:38.685Z,61.83
2022-11-29T05:36:08.861Z,61.74
2022-11-29T05:38:41.728Z,61.90
2022-11-29T05:41:16.416Z,61.93
2022-11-29T05:43:54.579Z,61.67
2022-11-29T05:46:23.707Z,61.89
2022-11-29T05:48:57.685Z,61.62
2022-11-29T05:51:31.900Z,61.53
2022-11-29T05:54:03.044Z,61.66
2022-11-29T05:56:37.255Z,61.49
2022-11-29T05:59:08.495Z,61.59
2022-11-29T06:01:38.588Z,61.58
2022-11-29T06:04:11.674Z,61.66
2022-11-29T06:06:44.304Z,61.67
2022-11-29T06:09:16.070Z,61.60
2022-11-29T06:11:45.343Z,61.52
2022-11-29T06:14:22.617Z,61.47
2022-11-29T06:17:01.764Z,61.39
2022-11-29T06:19:39.177Z,61.76
2022-11-29T06:22:20.802Z,61.32
2022-11-29T06:24:58.326Z,61.32
2022-11-29T06:27:35.193Z,61.33
2022-11-29T06:30:07.704Z,61.13
2022-11-29T06:32:40.085Z,61.33
2022-11-29T06:35:10.361Z,61.35
2022-11-29T06:37:39.337Z,61.08
2022-11-29T06:40:09.586Z,61.05
2022-11-29T06:42:37.011Z,61.07
2022-11-29T06:45:07.322Z,60.78
2022-11-29T06:47:38.505Z,60.68
2022-11-29T06:50:14.639Z,60.34
2022-11-29T06:52:44.707Z,60.08
2022-11-29T06:55:15.925Z,59.92
2022-11-29T06:57:54.577Z,59.80
2022-11-29T07:00:25.520Z,59.83
2022-11-29T07:03:00.617Z,59.74
2022-11-29T07:05:28.827Z,59.85
2022-11-29T07:07:57.443Z,59.78
2022-11-29T07:10:25.568Z,59.79
2022-11-29T07:12:53.452Z,59.65
2022-11-29T07:15:23.252Z,59.52
2022-11-29T07:17:58.744Z,59.37
2022-11-29T07:20:30.144Z,59.13
2022-11-29T07:23:01.959Z,58.94
2022-11-29T07:25:33.924Z,58.92
2022-11-29T07:28:06.103Z,58.79
2022-11-29T07:30:37.456Z,58.57
2022-11-29T07:33:07.344Z,58.52
2022-11-29T07:35:38.239Z,58.54
2022-11-29T07:38:10.696Z,58.34
2022-11-29T07:40:41.693Z,58.28
2022-11-29T07:43:17.535Z,58.36
2022-11-29T07:45:46.665Z,58.28
2022-11-29T07:48:14.120Z,58.42
2022-11-29T07:50:41.609Z,58.49
2022-11-29T07:53:10.395Z,58.59
2022-11-29T07:55:37.859Z,58.62
2022-11-29T07:58:05.305Z,58.61
2022-11-29T08:00:32.789Z,58.46
2022-11-29T08:03:01.589Z,58.37
2022-11-29T08:05:29.023Z,58.31
2022-11-29T08:07:56.627Z,58.10
2022-11-29T08:10:24.107Z,58.23
2022-11-29T08:12:51.609Z,58.24
2022-11-29T08:15:19.363Z,57.99
2022-11-29T08:17:46.797Z,58.02
2022-11-29T08:20:16.424Z,58.01
2022-11-29T08:22:43.998Z,58.13
2022-11-29T08:25:11.488Z,57.97
2022-11-29T08:27:39.052Z,58.13
2022-11-29T08:30:07.639Z,57.99
2022-11-29T08:32:35.211Z,58.19
2022-11-29T08:35:02.747Z,58.00
2022-11-29T08:37:31.493Z,57.87
2022-11-29T08:39:58.963Z,57.61
2022-11-29T08:42:26.425Z,57.50
2022-11-29T08:44:53.877Z,57.42
2022-11-29T08:47:36.561Z,57.59
2022-11-29T08:50:04.566Z,57.44
2022-11-29T08:52:52.007Z,57.31
2022-11-29T08:55:19.863Z,57.39
2022-11-29T08:57:47.313Z,57.42
2022-11-29T09:00:15.808Z,57.61
2022-11-29T09:02:43.263Z,57.65
2022-11-29T09:05:11.052Z,57.52
2022-11-29T09:07:39.884Z,57.74
2022-11-29T09:10:08.790Z,57.77
2022-11-29T09:12:36.421Z,57.60
2022-11-29T09:15:04.669Z,57.56
2022-11-29T09:17:32.110Z,57.73
2022-11-29T09:19:59.551Z,57.93
2022-11-29T09:22:27.003Z,57.71
2022-11-29T09:24:55.776Z,57.76
2022-11-29T09:27:23.197Z,57.99
2022-11-29T09:29:50.640Z,58.04
2022-11-29T09:32:18.060Z,57.96
2022-11-29T09:34:45.881Z,58.02
2022-11-29T09:37:13.519Z,58.01
2022-11-29T09:39:41.576Z,58.03
2022-11-29T09:42:15.883Z,57.85
2022-11-29T09:44:50.709Z,57.94
2022-11-29T09:47:25.921Z,57.95
2022-11-29T09:49:57.245Z,57.66
2022-11-29T09:52:31.413Z,57.72
2022-11-29T09:55:02.530Z,58.19
2022-11-29T09:57:31.309Z,58.21
2022-11-29T09:59:59.841Z,58.59
2022-11-29T10:02:31.007Z,58.54
2022-11-29T10:05:01.509Z,58.47
2022-11-29T10:07:31.256Z,58.39
2022-11-29T10:10:01.936Z,58.34
2022-11-29T10:12:34.872Z,58.43
2022-11-29T10:15:04.384Z,58.44
2022-11-29T10:17:34.797Z,58.17
2022-11-29T10:20:05.421Z,58.18
2022-11-29T10:22:38.556Z,58.42
2022-11-29T10:25:06.735Z,58.42
2022-11-29T10:27:35.510Z,58.40
2022-11-29T10:30:02.955Z,58.54
2022-11-29T10:32:31.863Z,58.34
2022-11-29T10:35:00.763Z,58.49
2022-11-29T10:37:32.369Z,58.77
2022-11-29T10:40:04.122Z,58.76
2022-11-29T10:42:49.791Z,58.79
2022-11-29T10:45:20.180Z,58.51
2022-11-29T10:47:48.180Z,58.37
2022-11-29T10:50:18.429Z,58.47
2022-11-29T10:52:45.855Z,58.62
2022-11-29T10:55:13.885Z,58.38
2022-11-29T10:58:08.629Z,58.38
2022-11-29T11:00:45.435Z,58.09
2022-11-29T11:03:25.500Z,58.11
2022-11-29T11:06:01.101Z,58.22
2022-11-29T11:08:28.819Z,58.26
2022-11-29T11:11:01.176Z,58.28
2022-11-29T11:13:30.400Z,57.89
2022-11-29T11:16:00.326Z,57.99
2022-11-29T11:18:29.130Z,58.12
2022-11-29T11:20:57.939Z,57.98
2022-11-29T11:23:26.684Z,58.13
2022-11-29T11:25:58.223Z,57.73
2022-11-29T11:28:27.109Z,57.74
2022-11-29T11:30:55.576Z,57.91
2022-11-29T11:33:25.947Z,57.95
2022-11-29T11:36:08.019Z,57.89
2022-11-29T11:38:36.039Z,57.95
2022-11-29T11:41:13.559Z,57.88
2022-11-29T11:43:41.212Z,57.82
2022-11-29T11:46:09.996Z,57.76
2022-11-29T11:48:40.289Z,57.93
2022-11-29T11:51:09.028Z,57.89
2022-11-29T11:53:37.289Z,57.96
2022-11-29T11:56:06.258Z,58.00
2022-11-29T11:58:34.667Z,57.97
2022-11-29T12:01:14.381Z,57.74
2022-11-29T12:03:50.715Z,58.10
2022-11-29T12:06:26.037Z,57.69
2022-11-29T12:08:54.696Z,58.09
2022-11-29T12:11:22.165Z,58.12
2022-11-29T12:13:51.820Z,57.98
2022-11-29T12:16:27.168Z,57.83
2022-11-29T12:18:58.810Z,57.86
2022-11-29T12:21:27.327Z,57.87
2022-11-29T12:23:57.663Z,57.59
2022-11-29T12:26:56.007Z,57.74
2022-11-29T12:29:15.184Z,57.77
2022-11-29T12:31:58.070Z,57.83
2022-11-29T12:34:47.506Z,57.75
2022-11-29T12:37:17.145Z,57.71
2022-11-29T12:39:49.925Z,57.72
2022-11-29T12:42:22.245Z,57.51
2022-11-29T12:44:54.248Z,57.54
2022-11-29T12:47:35.546Z,57.35
2022-11-29T12:50:12.929Z,57.34
2022-11-29T12:52:43.560Z,57.49
2022-11-29T12:55:17.487Z,57.47
2022-11-29T12:57:47.388Z,57.37
2022-11-29T13:00:16.373Z,57.52
2022-11-29T13:02:53.882Z,57.30
2022-11-29T13:05:27.782Z,57.58
2022-11-29T13:08:02.246Z,57.45
2022-11-29T13:10:33.957Z,57.36
2022-11-29T13:13:03.984Z,57.25
2022-11-29T13:15:36.626Z,57.34
2022-11-29T13:18:06.159Z,57.35
2022-11-29T13:20:39.084Z,57.41
2022-11-29T13:23:12.574Z,57.42
2022-11-29T13:25:41.140Z,57.41
2022-11-29T13:28:12.316Z,57.21
2022-11-29T13:30:39.785Z,57.23
2022-11-29T13:33:12.255Z,57.16
2022-11-29T13:35:43.324Z,57.32
2022-11-29T13:38:14.229Z,57.22
2022-11-29T13:40:48.191Z,57.00
2022-11-29T13:43:18.328Z,57.14
2022-11-29T13:45:47.732Z,57.24
2022-11-29T13:48:37.013Z,57.17
2022-11-29T13:51:38.816Z,57.13
2022-11-29T13:54:07.052Z,57.25
2022-11-29T13:56:42.836Z,57.31
2022-11-29T13:59:18.195Z,57.33
2022-11-29T14:01:47.264Z,57.34
2022-11-29T14:04:25.507Z,57.33
2022-11-29T14:07:04.212Z,57.52
2022-11-29T14:09:34.692Z,57.21
2022-11-29T14:12:04.339Z,57.15
2022-11-29T14:14:34.885Z,57.17
2022-11-29T14:17:02.931Z,57.08
2022-11-29T14:19:33.845Z,57.22
2022-11-29T14:22:19.634Z,56.98
2022-11-29T14:25:00.829Z,57.07
2022-11-29T14:27:55.083Z,57.01
2022-11-29T14:30:48.690Z,57.14
2022-11-29T14:33:27.740Z,56.76
2022-11-29T14:36:00.905Z,56.88
2022-11-29T14:38:31.456Z,57.06
2022-11-29T14:41:00.261Z,56.91
2022-11-29T14:43:30.522Z,56.82
2022-11-29T14:46:08.174Z,56.79
2022-11-29T14:48:35.699Z,56.59
2022-11-29T14:51:09.881Z,56.78
2022-11-29T14:53:38.760Z,56.79
2022-11-29T14:56:38.726Z,56.48
2022-11-29T14:59:46.485Z,56.68
2022-11-29T15:02:24.317Z,56.87
2022-11-29T15:04:52.158Z,56.85
2022-11-29T15:07:24.509Z,56.71
2022-11-29T15:09:53.307Z,56.79
2022-11-29T15:12:22.590Z,56.81
2022-11-29T15:14:52.670Z,56.85
2022-11-29T15:17:24.359Z,56.74
2022-11-29T15:20:16.742Z,56.64
2022-11-29T15:22:47.305Z,56.50
2022-11-29T15:25:18.191Z,56.81
2022-11-29T15:27:55.099Z,56.54
2022-11-29T15:30:29.004Z,56.79
2022-11-29T15:32:56.548Z,56.75
2022-11-29T15:35:24.384Z,56.48
2022-11-29T15:37:51.836Z,56.61
2022-11-29T15:40:21.792Z,56.59
2022-11-29T15:42:50.524Z,56.39
2022-11-29T15:45:29.365Z,56.44
2022-11-29T15:47:57.338Z,56.54
2022-11-29T15:50:26.562Z,56.42
2022-11-29T15:52:55.279Z,56.56
2022-11-29T15:55:24.131Z,56.37
2022-11-29T15:57:52.138Z,56.71
2022-11-29T16:00:22.949Z,56.43
2022-11-29T16:02:51.529Z,56.41
2022-11-29T16:05:21.425Z,56.48
2022-11-29T16:07:49.389Z,56.43
2022-11-29T16:10:17.736Z,56.35
2022-11-29T16:12:53.673Z,56.44
2022-11-29T16:15:26.416Z,56.50
2022-11-29T16:17:53.899Z,56.43
2022-11-29T16:20:24.188Z,56.62
2022-11-29T16:23:14.113Z,56.65
2022-11-29T16:25:56.743Z,56.32
2022-11-29T16:28:26.242Z,56.49
2022-11-29T16:30:53.712Z,56.75
2022-11-29T16:33:23.073Z,56.56
2022-11-29T16:35:50.517Z,56.69
2022-11-29T16:38:20.312Z,56.75
2022-11-29T16:41:01.626Z,56.62
2022-11-29T16:43:53.536Z,56.80
2022-11-29T16:46:31.946Z,56.89
2022-11-29T16:49:00.727Z,56.79
2022-11-29T16:51:33.016Z,56.89
2022-11-29T16:54:20.062Z,57.07
2022-11-29T16:56:47.499Z,57.06
2022-11-29T16:59:25.115Z,56.82
2022-11-29T17:01:54.703Z,57.08
2022-11-29T17:04:24.187Z,56.97
2022-11-29T17:06:52.635Z,57.10
2022-11-29T17:09:25.152Z,57.47
2022-11-29T17:11:53.062Z,57.39
2022-11-29T17:14:21.818Z,57.45
2022-11-29T17:16:50.357Z,57.19
2022-11-29T17:19:18.053Z,57.54
2022-11-29T17:21:45.536Z,57.44
2022-11-29T17:24:14.343Z,57.46
2022-11-29T17:26:41.894Z,57.65
2022-11-29T17:29:10.798Z,57.60
2022-11-29T17:31:39.726Z,57.83
2022-11-29T17:34:07.239Z,57.64
2022-11-29T17:36:34.684Z,57.84
2022-11-29T17:39:02.322Z,57.92
2022-11-29T17:41:30.416Z,58.01
2022-11-29T17:43:57.984Z,58.02
2022-11-29T17:46:26.793Z,58.06
2022-11-29T17:48:55.651Z,58.14
2022-11-29T17:51:50.516Z,58.33
2022-11-29T17:54:11.387Z,58.05
2022-11-29T17:56:39.021Z,58.30
2022-11-29T17:59:06.687Z,58.27
2022-11-29T18:01:35.581Z,58.21
2022-11-29T18:04:05.562Z,58.36
2022-11-29T18:06:35.764Z,58.49
2022-11-29T18:09:03.262Z,58.40
2022-11-29T18:11:32.978Z,58.49
2022-11-29T18:14:06.517Z,58.48
2022-11-29T18:16:35.019Z,58.43
2022-11-29T18:19:05.103Z,58.74
2022-11-29T18:21:32.749Z,58.68
2022-11-29T18:24:00.480Z,58.62
2022-11-29T18:26:28.260Z,58.88
2022-11-29T18:28:55.723Z,58.71
2022-11-29T18:31:23.807Z,58.85
2022-11-29T18:33:52.788Z,58.85
2022-11-29T18:36:22.732Z,58.83
2022-11-29T18:38:50.213Z,58.78
2022-11-29T18:41:18.538Z,58.84
2022-11-29T18:43:46.075Z,58.99
2022-11-29T18:46:14.318Z,58.95
2022-11-29T18:48:41.829Z,59.03
2022-11-29T18:51:11.466Z,59.12
2022-11-29T18:53:40.326Z,58.99
2022-11-29T18:56:09.811Z,59.04
2022-11-29T18:58:37.917Z,59.13
2022-11-29T19:01:06.507Z,59.20
2022-11-29T19:03:35.811Z,59.24
2022-11-29T19:06:03.304Z,59.21
2022-11-29T19:08:30.737Z,59.30
2022-11-29T19:10:59.507Z,59.17
2022-11-29T19:13:26.940Z,59.43
2022-11-29T19:15:54.645Z,59.47
2022-11-29T19:18:22.201Z,59.33
2022-11-29T19:20:49.665Z,59.38
2022-11-29T19:23:17.113Z,59.41
2022-11-29T19:25:44.519Z,59.45
2022-11-29T19:28:14.350Z,59.51
2022-11-29T19:30:41.958Z,59.59
2022-11-29T19:33:09.460Z,59.70
2022-11-29T19:35:37.004Z,59.51
2022-11-29T19:38:04.453Z,59.78
2022-11-29T19:40:31.923Z,59.71
2022-11-29T19:42:59.400Z,59.73
2022-11-29T19:45:28.180Z,59.87
2022-11-29T19:47:55.632Z,59.92
2022-11-29T19:50:23.061Z,59.97
2022-11-29T19:52:50.627Z,59.87
2022-11-29T19:55:18.150Z,59.93
2022-11-29T19:57:45.614Z,59.86
2022-11-29T20:00:14.359Z,59.93
2022-11-29T20:02:43.159Z,60.03
2022-11-29T20:05:11.835Z,60.11
2022-11-29T20:07:39.395Z,60.08
2022-11-29T20:10:08.030Z,60.18
2022-11-29T20:12:35.463Z,60.11
2022-11-29T20:15:02.883Z,60.30
2022-11-29T20:17:30.359Z,60.18
2022-11-29T20:19:59.158Z,60.25
2022-11-29T20:22:26.664Z,60.07
2022-11-29T20:24:54.594Z,60.28
2022-11-29T20:27:23.301Z,60.26
2022-11-29T20:29:50.726Z,60.27
2022-11-29T20:32:18.383Z,60.31
2022-11-29T20:34:46.392Z,60.34
2022-11-29T20:37:30.139Z,60.33
2022-11-29T20:39:58.987Z,60.39
2022-11-29T20:42:51.584Z,60.40
2022-11-29T20:45:19.549Z,60.48
2022-11-29T20:47:50.828Z,60.50
2022-11-29T20:50:23.123Z,60.42
2022-11-29T20:52:57.487Z,60.47
2022-11-29T20:55:24.925Z,60.54
2022-11-29T20:57:52.419Z,60.56
2022-11-29T21:00:20.630Z,60.55
2022-11-29T21:02:48.092Z,60.67
2022-11-29T21:05:16.305Z,60.56
2022-11-29T21:07:43.892Z,60.61
2022-11-29T21:10:14.677Z,60.49
2022-11-29T21:12:42.622Z,60.65
2022-11-29T21:15:11.968Z,60.62
2022-11-29T21:17:40.585Z,60.60
2022-11-29T21:20:09.091Z,60.69
2022-11-29T21:22:39.336Z,60.63
2022-11-29T21:25:10.869Z,60.70
2022-11-29T21:27:40.250Z,60.79
2022-11-29T21:30:13.945Z,60.82
2022-11-29T21:32:42.501Z,60.76
2022-11-29T21:35:10.181Z,60.81
2022-11-29T21:37:37.632Z,60.76
2022-11-29T21:40:06.069Z,60.79
2022-11-29T21:42:33.568Z,61.00
2022-11-29T21:45:02.403Z,60.92
2022-11-29T21:47:30.404Z,60.85
2022-11-29T21:49:57.870Z,60.84
2022-11-29T21:52:25.326Z,60.85
2022-11-29T21:54:52.783Z,60.92
2022-11-29T21:57:20.219Z,61.01
2022-11-29T21:59:47.716Z,60.97
2022-11-29T22:02:16.663Z,61.00
2022-11-29T22:04:44.528Z,60.99
2022-11-29T22:07:12.287Z,61.12
2022-11-29T22:09:39.774Z,61.05
2022-11-29T22:12:26.196Z,61.08
2022-11-29T22:14:54.972Z,61.10
2022-11-29T22:17:23.831Z,61.00
2022-11-29T22:19:51.301Z,61.08
2022-11-29T22:22:18.803Z,61.14
2022-11-29T22:24:46.622Z,61.13
2022-11-29T22:27:14.246Z,61.11
2022-11-29T22:29:41.723Z,61.11
2022-11-29T22:32:09.159Z,60.95
2022-11-29T22:34:37.964Z,61.12
2022-11-29T22:37:05.433Z,60.95
2022-11-29T22:39:32.924Z,61.20
2022-11-29T22:42:00.377Z,61.28
2022-11-29T22:44:27.873Z,61.08
2022-11-29T22:46:55.393Z,61.18
2022-11-29T22:49:23.048Z,61.25
2022-11-29T22:51:52.207Z,61.20
2022-11-29T22:54:20.161Z,61.25
2022-11-29T22:56:47.746Z,61.29
2022-11-29T22:59:15.221Z,61.31
2022-11-29T23:01:42.979Z,61.40
2022-11-29T23:04:11.221Z,61.30
2022-11-29T23:06:39.492Z,61.43
2022-11-29T23:09:10.568Z,61.51
2022-11-29T23:11:38.118Z,61.29
2022-11-29T23:14:05.700Z,61.52
2022-11-29T23:16:33.607Z,61.47
2022-11-29T23:19:01.309Z,61.44
2022-11-29T23:21:29.595Z,61.52
2022-11-29T23:23:57.128Z,61.41
2022-11-29T23:26:26.752Z,61.44
2022-11-29T23:28:54.310Z,61.28
2022-11-29T23:31:22.351Z,61.42
2022-11-29T23:33:49.953Z,61.53
2022-11-29T23:36:17.573Z,61.32
2022-11-29T23:38:45.070Z,61.53
2022-11-29T23:41:12.822Z,61.49
2022-11-29T23:43:42.064Z,61.47
2022-11-29T23:46:10.477Z,61.56
2022-11-29T23:48:37.998Z,61.61
2022-11-29T23:51:05.506Z,61.55
2022-11-29T23:53:33.186Z,61.56
2022-11-29T23:56:01.302Z,61.50
2022-11-29T23:58:29.359Z,61.65
